sensor_id;sensor_type;location;lat;lon;timestamp;P1;durP1;ratioP1;P2;durP2;ratioP2
81273;SDS011;70753;47.908;11.274;2024-01-10T00:00:10;33.03;;;13.07;;
81273;SDS011;70753;47.908;11.274;2024-01-10T00:02:37;28.30;;;10.70;;
81273;SDS011;70753;47.908;11.274;2024-01-10T00:05:02;34.45;;;12.40;;
81273;SDS011;70753;47.908;11.274;2024-01-10T00:07:28;30.83;;;11.98;;
81273;SDS011;70753;47.908;11.274;2024-01-10T00:09:54;29.08;;;12.32;;
81273;SDS011;70753;47.908;11.274;2024-01-10T00:12:19;32.00;;;12.07;;
81273;SDS011;70753;47.908;11.274;2024-01-10T00:14:44;24.70;;;9.68;;
81273;SDS011;70753;47.908;11.274;2024-01-10T00:17:10;28.60;;;11.43;;
81273;SDS011;70753;47.908;11.274;2024-01-10T00:19:36;30.58;;;12.00;;
81273;SDS011;70753;47.908;11.274;2024-01-10T00:22:02;28.10;;;10.52;;
81273;SDS011;70753;47.908;11.274;2024-01-10T00:24:27;28.83;;;11.65;;
81273;SDS011;70753;47.908;11.274;2024-01-10T00:26:53;31.00;;;12.17;;
81273;SDS011;70753;47.908;11.274;2024-01-10T00:29:18;32.42;;;12.82;;
81273;SDS011;70753;47.908;11.274;2024-01-10T00:31:43;23.48;;;10.73;;
81273;SDS011;70753;47.908;11.274;2024-01-10T00:34:09;31.58;;;11.75;;
81273;SDS011;70753;47.908;11.274;2024-01-10T00:36:35;30.80;;;11.77;;
81273;SDS011;70753;47.908;11.274;2024-01-10T00:39:01;27.83;;;11.05;;
81273;SDS011;70753;47.908;11.274;2024-01-10T00:41:26;29.80;;;10.57;;
81273;SDS011;70753;47.908;11.274;2024-01-10T00:43:51;30.80;;;12.38;;
81273;SDS011;70753;47.908;11.274;2024-01-10T00:46:17;27.42;;;10.98;;
81273;SDS011;70753;47.908;11.274;2024-01-10T00:48:42;25.17;;;10.80;;
81273;SDS011;70753;47.908;11.274;2024-01-10T00:51:07;29.17;;;11.65;;
81273;SDS011;70753;47.908;11.274;2024-01-10T00:53:34;24.17;;;10.32;;
81273;SDS011;70753;47.908;11.274;2024-01-10T00:56:00;23.30;;;10.23;;
81273;SDS011;70753;47.908;11.274;2024-01-10T00:58:25;32.13;;;11.70;;
81273;SDS011;70753;47.908;11.274;2024-01-10T01:00:50;26.13;;;9.73;;
81273;SDS011;70753;47.908;11.274;2024-01-10T01:03:16;29.73;;;11.80;;
81273;SDS011;70753;47.908;11.274;2024-01-10T01:05:41;23.50;;;10.18;;
81273;SDS011;70753;47.908;11.274;2024-01-10T01:08:06;33.33;;;10.88;;
81273;SDS011;70753;47.908;11.274;2024-01-10T01:10:33;26.50;;;9.65;;
81273;SDS011;70753;47.908;11.274;2024-01-10T01:12:59;31.95;;;11.05;;
81273;SDS011;70753;47.908;11.274;2024-01-10T01:15:24;27.30;;;10.63;;
81273;SDS011;70753;47.908;11.274;2024-01-10T01:17:49;30.75;;;11.48;;
81273;SDS011;70753;47.908;11.274;2024-01-10T01:20:15;28.05;;;10.45;;
81273;SDS011;70753;47.908;11.274;2024-01-10T01:22:40;28.48;;;10.77;;
81273;SDS011;70753;47.908;11.274;2024-01-10T01:25:06;29.95;;;10.63;;
81273;SDS011;70753;47.908;11.274;2024-01-10T01:27:33;30.65;;;12.48;;
81273;SDS011;70753;47.908;11.274;2024-01-10T01:29:58;25.85;;;10.88;;
81273;SDS011;70753;47.908;11.274;2024-01-10T01:32:23;36.25;;;12.18;;
81273;SDS011;70753;47.908;11.274;2024-01-10T01:34:49;33.03;;;11.85;;
81273;SDS011;70753;47.908;11.274;2024-01-10T01:37:14;25.52;;;10.30;;
81273;SDS011;70753;47.908;11.274;2024-01-10T01:39:39;28.58;;;10.70;;
81273;SDS011;70753;47.908;11.274;2024-01-10T01:42:05;28.92;;;11.55;;
81273;SDS011;70753;47.908;11.274;2024-01-10T01:44:31;27.27;;;11.80;;
81273;SDS011;70753;47.908;11.274;2024-01-10T01:46:57;24.88;;;9.90;;
81273;SDS011;70753;47.908;11.274;2024-01-10T01:49:23;30.02;;;11.60;;
81273;SDS011;70753;47.908;11.274;2024-01-10T01:51:49;29.73;;;11.40;;
81273;SDS011;70753;47.908;11.274;2024-01-10T01:54:14;26.13;;;11.15;;
81273;SDS011;70753;47.908;11.274;2024-01-10T01:56:40;33.83;;;11.30;;
81273;SDS011;70753;47.908;11.274;2024-01-10T01:59:07;27.17;;;10.68;;
81273;SDS011;70753;47.908;11.274;2024-01-10T02:01:34;28.15;;;10.55;;
81273;SDS011;70753;47.908;11.274;2024-01-10T02:04:00;28.13;;;11.13;;
81273;SDS011;70753;47.908;11.274;2024-01-10T02:06:26;29.80;;;12.35;;
81273;SDS011;70753;47.908;11.274;2024-01-10T02:08:52;32.03;;;12.23;;
81273;SDS011;70753;47.908;11.274;2024-01-10T02:11:18;26.48;;;11.65;;
81273;SDS011;70753;47.908;11.274;2024-01-10T02:13:45;26.10;;;11.25;;
81273;SDS011;70753;47.908;11.274;2024-01-10T02:16:10;27.65;;;11.25;;
81273;SDS011;70753;47.908;11.274;2024-01-10T02:18:39;27.30;;;11.20;;
81273;SDS011;70753;47.908;11.274;2024-01-10T02:21:04;28.42;;;11.00;;
81273;SDS011;70753;47.908;11.274;2024-01-10T02:23:30;26.70;;;10.20;;
81273;SDS011;70753;47.908;11.274;2024-01-10T02:25:56;27.27;;;11.38;;
81273;SDS011;70753;47.908;11.274;2024-01-10T02:28:22;29.63;;;11.98;;
81273;SDS011;70753;47.908;11.274;2024-01-10T02:30:47;29.10;;;10.80;;
81273;SDS011;70753;47.908;11.274;2024-01-10T02:33:13;31.33;;;10.43;;
81273;SDS011;70753;47.908;11.274;2024-01-10T02:35:38;30.90;;;9.55;;
81273;SDS011;70753;47.908;11.274;2024-01-10T02:38:05;23.38;;;9.82;;
81273;SDS011;70753;47.908;11.274;2024-01-10T02:40:30;31.23;;;10.50;;
81273;SDS011;70753;47.908;11.274;2024-01-10T02:42:58;25.63;;;10.68;;
81273;SDS011;70753;47.908;11.274;2024-01-10T02:45:23;30.40;;;11.10;;
81273;SDS011;70753;47.908;11.274;2024-01-10T02:47:49;28.90;;;11.30;;
81273;SDS011;70753;47.908;11.274;2024-01-10T02:50:14;29.27;;;11.35;;
81273;SDS011;70753;47.908;11.274;2024-01-10T02:52:40;25.00;;;10.50;;
81273;SDS011;70753;47.908;11.274;2024-01-10T02:55:05;22.88;;;9.75;;
81273;SDS011;70753;47.908;11.274;2024-01-10T02:57:31;29.35;;;11.02;;
81273;SDS011;70753;47.908;11.274;2024-01-10T02:59:58;24.38;;;9.80;;
81273;SDS011;70753;47.908;11.274;2024-01-10T03:02:23;27.45;;;10.70;;
81273;SDS011;70753;47.908;11.274;2024-01-10T03:04:49;27.20;;;10.63;;
81273;SDS011;70753;47.908;11.274;2024-01-10T03:07:14;26.17;;;10.63;;
81273;SDS011;70753;47.908;11.274;2024-01-10T03:09:40;26.55;;;9.10;;
81273;SDS011;70753;47.908;11.274;2024-01-10T03:12:05;25.48;;;8.75;;
81273;SDS011;70753;47.908;11.274;2024-01-10T03:14:32;30.80;;;11.38;;
81273;SDS011;70753;47.908;11.274;2024-01-10T03:16:59;26.92;;;10.23;;
81273;SDS011;70753;47.908;11.274;2024-01-10T03:19:24;24.33;;;9.68;;
81273;SDS011;70753;47.908;11.274;2024-01-10T03:21:50;29.13;;;9.65;;
81273;SDS011;70753;47.908;11.274;2024-01-10T03:24:15;27.63;;;10.23;;
81273;SDS011;70753;47.908;11.274;2024-01-10T03:26:40;24.83;;;10.93;;
81273;SDS011;70753;47.908;11.274;2024-01-10T03:29:07;26.25;;;10.48;;
81273;SDS011;70753;47.908;11.274;2024-01-10T03:31:32;22.95;;;10.65;;
81273;SDS011;70753;47.908;11.274;2024-01-10T03:34:00;24.08;;;10.13;;
81273;SDS011;70753;47.908;11.274;2024-01-10T03:36:25;24.65;;;9.85;;
81273;SDS011;70753;47.908;11.274;2024-01-10T03:38:51;24.30;;;9.13;;
81273;SDS011;70753;47.908;11.274;2024-01-10T03:41:16;23.58;;;10.15;;
81273;SDS011;70753;47.908;11.274;2024-01-10T03:43:42;24.60;;;10.30;;
81273;SDS011;70753;47.908;11.274;2024-01-10T03:46:08;28.52;;;10.73;;
81273;SDS011;70753;47.908;11.274;2024-01-10T03:48:33;26.63;;;9.48;;
81273;SDS011;70753;47.908;11.274;2024-01-10T03:51:00;23.80;;;9.45;;
81273;SDS011;70753;47.908;11.274;2024-01-10T03:53:26;25.67;;;10.25;;
81273;SDS011;70753;47.908;11.274;2024-01-10T03:55:51;28.00;;;10.50;;
81273;SDS011;70753;47.908;11.274;2024-01-10T03:58:17;30.48;;;11.55;;
81273;SDS011;70753;47.908;11.274;2024-01-10T04:00:42;29.13;;;11.02;;
81273;SDS011;70753;47.908;11.274;2024-01-10T04:03:08;26.05;;;11.10;;
81273;SDS011;70753;47.908;11.274;2024-01-10T04:05:33;29.50;;;11.18;;
81273;SDS011;70753;47.908;11.274;2024-01-10T04:08:00;26.05;;;10.35;;
81273;SDS011;70753;47.908;11.274;2024-01-10T04:10:25;24.73;;;10.63;;
81273;SDS011;70753;47.908;11.274;2024-01-10T04:12:51;26.95;;;11.13;;
81273;SDS011;70753;47.908;11.274;2024-01-10T04:15:16;29.08;;;11.07;;
81273;SDS011;70753;47.908;11.274;2024-01-10T04:17:43;28.75;;;12.05;;
81273;SDS011;70753;47.908;11.274;2024-01-10T04:20:09;29.00;;;10.85;;
81273;SDS011;70753;47.908;11.274;2024-01-10T04:22:34;23.55;;;9.50;;
81273;SDS011;70753;47.908;11.274;2024-01-10T04:25:01;28.00;;;10.88;;
81273;SDS011;70753;47.908;11.274;2024-01-10T04:27:30;26.65;;;10.57;;
81273;SDS011;70753;47.908;11.274;2024-01-10T04:29:56;29.77;;;10.68;;
81273;SDS011;70753;47.908;11.274;2024-01-10T04:32:21;30.98;;;11.52;;
81273;SDS011;70753;47.908;11.274;2024-01-10T04:34:46;28.40;;;10.77;;
81273;SDS011;70753;47.908;11.274;2024-01-10T04:37:13;28.08;;;10.55;;
81273;SDS011;70753;47.908;11.274;2024-01-10T04:39:38;30.63;;;11.65;;
81273;SDS011;70753;47.908;11.274;2024-01-10T04:42:05;30.73;;;11.43;;
81273;SDS011;70753;47.908;11.274;2024-01-10T04:44:31;30.63;;;10.27;;
81273;SDS011;70753;47.908;11.274;2024-01-10T04:46:56;29.05;;;11.38;;
81273;SDS011;70753;47.908;11.274;2024-01-10T04:49:22;31.40;;;11.73;;
81273;SDS011;70753;47.908;11.274;2024-01-10T04:51:47;34.25;;;12.68;;
81273;SDS011;70753;47.908;11.274;2024-01-10T04:54:13;34.05;;;11.43;;
81273;SDS011;70753;47.908;11.274;2024-01-10T04:56:38;28.45;;;10.88;;
81273;SDS011;70753;47.908;11.274;2024-01-10T04:59:05;30.83;;;11.57;;
81273;SDS011;70753;47.908;11.274;2024-01-10T05:01:30;31.60;;;10.85;;
81273;SDS011;70753;47.908;11.274;2024-01-10T05:03:56;28.77;;;11.38;;
81273;SDS011;70753;47.908;11.274;2024-01-10T05:06:22;38.33;;;11.90;;
81273;SDS011;70753;47.908;11.274;2024-01-10T05:08:47;31.52;;;11.52;;
81273;SDS011;70753;47.908;11.274;2024-01-10T05:11:12;34.38;;;13.15;;
81273;SDS011;70753;47.908;11.274;2024-01-10T05:13:40;35.25;;;12.80;;
81273;SDS011;70753;47.908;11.274;2024-01-10T05:16:06;34.83;;;12.23;;
81273;SDS011;70753;47.908;11.274;2024-01-10T05:18:32;34.40;;;13.07;;
81273;SDS011;70753;47.908;11.274;2024-01-10T05:20:57;37.42;;;12.27;;
81273;SDS011;70753;47.908;11.274;2024-01-10T05:23:23;36.03;;;11.50;;
81273;SDS011;70753;47.908;11.274;2024-01-10T05:25:48;32.47;;;12.73;;
81273;SDS011;70753;47.908;11.274;2024-01-10T05:28:14;27.98;;;11.20;;
81273;SDS011;70753;47.908;11.274;2024-01-10T05:30:39;37.30;;;12.23;;
81273;SDS011;70753;47.908;11.274;2024-01-10T05:33:06;34.83;;;12.95;;
81273;SDS011;70753;47.908;11.274;2024-01-10T05:35:31;32.53;;;13.25;;
81273;SDS011;70753;47.908;11.274;2024-01-10T05:37:57;35.90;;;12.65;;
81273;SDS011;70753;47.908;11.274;2024-01-10T05:40:22;29.33;;;11.23;;
81273;SDS011;70753;47.908;11.274;2024-01-10T05:42:47;32.85;;;12.38;;
81273;SDS011;70753;47.908;11.274;2024-01-10T05:45:13;40.30;;;12.27;;
81273;SDS011;70753;47.908;11.274;2024-01-10T05:47:38;36.95;;;12.85;;
81273;SDS011;70753;47.908;11.274;2024-01-10T05:50:06;35.45;;;13.65;;
81273;SDS011;70753;47.908;11.274;2024-01-10T05:52:32;35.40;;;12.80;;
81273;SDS011;70753;47.908;11.274;2024-01-10T05:54:57;38.33;;;14.02;;
81273;SDS011;70753;47.908;11.274;2024-01-10T05:57:22;33.90;;;11.68;;
81273;SDS011;70753;47.908;11.274;2024-01-10T05:59:48;35.03;;;11.65;;
81273;SDS011;70753;47.908;11.274;2024-01-10T06:02:13;38.97;;;13.60;;
81273;SDS011;70753;47.908;11.274;2024-01-10T06:04:39;31.10;;;11.98;;
81273;SDS011;70753;47.908;11.274;2024-01-10T06:07:06;31.67;;;13.30;;
81273;SDS011;70753;47.908;11.274;2024-01-10T06:09:31;29.40;;;11.48;;
81273;SDS011;70753;47.908;11.274;2024-01-10T06:11:57;33.38;;;12.25;;
81273;SDS011;70753;47.908;11.274;2024-01-10T06:14:22;35.40;;;13.32;;
81273;SDS011;70753;47.908;11.274;2024-01-10T06:16:47;32.67;;;11.60;;
81273;SDS011;70753;47.908;11.274;2024-01-10T06:19:13;41.30;;;12.80;;
81273;SDS011;70753;47.908;11.274;2024-01-10T06:21:39;38.38;;;12.38;;
81273;SDS011;70753;47.908;11.274;2024-01-10T06:24:06;43.22;;;12.88;;
81273;SDS011;70753;47.908;11.274;2024-01-10T06:26:31;33.15;;;12.60;;
81273;SDS011;70753;47.908;11.274;2024-01-10T06:28:57;31.15;;;11.07;;
81273;SDS011;70753;47.908;11.274;2024-01-10T06:31:22;35.17;;;12.65;;
81273;SDS011;70753;47.908;11.274;2024-01-10T06:33:47;33.13;;;12.18;;
81273;SDS011;70753;47.908;11.274;2024-01-10T06:36:13;32.00;;;11.45;;
81273;SDS011;70753;47.908;11.274;2024-01-10T06:38:38;36.85;;;12.02;;
81273;SDS011;70753;47.908;11.274;2024-01-10T06:41:08;30.38;;;11.13;;
81273;SDS011;70753;47.908;11.274;2024-01-10T06:43:33;31.77;;;12.20;;
81273;SDS011;70753;47.908;11.274;2024-01-10T06:45:59;30.13;;;11.02;;
81273;SDS011;70753;47.908;11.274;2024-01-10T06:48:24;32.08;;;11.25;;
81273;SDS011;70753;47.908;11.274;2024-01-10T06:50:50;29.05;;;12.20;;
81273;SDS011;70753;47.908;11.274;2024-01-10T06:53:15;32.03;;;11.35;;
81273;SDS011;70753;47.908;11.274;2024-01-10T06:55:41;32.85;;;10.65;;
81273;SDS011;70753;47.908;11.274;2024-01-10T06:58:08;29.45;;;10.73;;
81273;SDS011;70753;47.908;11.274;2024-01-10T07:00:33;34.35;;;11.57;;
81273;SDS011;70753;47.908;11.274;2024-01-10T07:03:00;31.23;;;10.95;;
81273;SDS011;70753;47.908;11.274;2024-01-10T07:05:26;32.28;;;11.48;;
81273;SDS011;70753;47.908;11.274;2024-01-10T07:07:51;33.75;;;11.95;;
81273;SDS011;70753;47.908;11.274;2024-01-10T07:10:16;34.28;;;12.80;;
81273;SDS011;70753;47.908;11.274;2024-01-10T07:12:42;37.38;;;12.63;;
81273;SDS011;70753;47.908;11.274;2024-01-10T07:15:09;33.03;;;11.05;;
81273;SDS011;70753;47.908;11.274;2024-01-10T07:17:34;33.38;;;11.05;;
81273;SDS011;70753;47.908;11.274;2024-01-10T07:20:00;35.00;;;10.48;;
81273;SDS011;70753;47.908;11.274;2024-01-10T07:22:25;27.08;;;10.13;;
81273;SDS011;70753;47.908;11.274;2024-01-10T07:24:50;27.17;;;11.30;;
81273;SDS011;70753;47.908;11.274;2024-01-10T07:27:16;26.15;;;11.65;;
81273;SDS011;70753;47.908;11.274;2024-01-10T07:29:41;33.40;;;11.50;;
81273;SDS011;70753;47.908;11.274;2024-01-10T07:32:08;32.47;;;11.73;;
81273;SDS011;70753;47.908;11.274;2024-01-10T07:34:33;33.97;;;12.05;;
81273;SDS011;70753;47.908;11.274;2024-01-10T07:36:59;32.85;;;11.73;;
81273;SDS011;70753;47.908;11.274;2024-01-10T07:39:24;32.35;;;11.43;;
81273;SDS011;70753;47.908;11.274;2024-01-10T07:41:49;28.80;;;11.27;;
81273;SDS011;70753;47.908;11.274;2024-01-10T07:44:15;30.08;;;10.25;;
81273;SDS011;70753;47.908;11.274;2024-01-10T07:46:40;36.13;;;12.30;;
81273;SDS011;70753;47.908;11.274;2024-01-10T07:49:07;32.97;;;11.50;;
81273;SDS011;70753;47.908;11.274;2024-01-10T07:51:32;30.58;;;11.50;;
81273;SDS011;70753;47.908;11.274;2024-01-10T07:53:59;30.05;;;10.60;;
81273;SDS011;70753;47.908;11.274;2024-01-10T07:56:24;35.28;;;12.32;;
81273;SDS011;70753;47.908;11.274;2024-01-10T07:58:50;34.50;;;12.13;;
81273;SDS011;70753;47.908;11.274;2024-01-10T08:01:15;33.97;;;11.95;;
81273;SDS011;70753;47.908;11.274;2024-01-10T08:03:40;37.63;;;13.13;;
81273;SDS011;70753;47.908;11.274;2024-01-10T08:06:07;41.33;;;13.77;;
81273;SDS011;70753;47.908;11.274;2024-01-10T08:08:33;40.95;;;14.05;;
81273;SDS011;70753;47.908;11.274;2024-01-10T08:10:58;40.20;;;13.50;;
81273;SDS011;70753;47.908;11.274;2024-01-10T08:13:23;37.53;;;13.23;;
81273;SDS011;70753;47.908;11.274;2024-01-10T08:15:49;36.35;;;12.13;;
81273;SDS011;70753;47.908;11.274;2024-01-10T08:18:14;37.67;;;13.15;;
81273;SDS011;70753;47.908;11.274;2024-01-10T08:20:40;41.75;;;12.50;;
81273;SDS011;70753;47.908;11.274;2024-01-10T08:23:06;37.20;;;12.43;;
81273;SDS011;70753;47.908;11.274;2024-01-10T08:25:32;35.72;;;12.40;;
81273;SDS011;70753;47.908;11.274;2024-01-10T08:27:57;36.55;;;12.35;;
81273;SDS011;70753;47.908;11.274;2024-01-10T08:30:23;37.67;;;13.95;;
81273;SDS011;70753;47.908;11.274;2024-01-10T08:32:48;36.83;;;13.20;;
81273;SDS011;70753;47.908;11.274;2024-01-10T08:35:14;40.30;;;12.60;;
81273;SDS011;70753;47.908;11.274;2024-01-10T08:37:39;36.63;;;12.93;;
81273;SDS011;70753;47.908;11.274;2024-01-10T08:40:07;37.67;;;14.00;;
81273;SDS011;70753;47.908;11.274;2024-01-10T08:42:34;36.22;;;11.93;;
81273;SDS011;70753;47.908;11.274;2024-01-10T08:44:59;33.28;;;13.25;;
81273;SDS011;70753;47.908;11.274;2024-01-10T08:47:25;33.22;;;11.55;;
81273;SDS011;70753;47.908;11.274;2024-01-10T08:49:50;32.17;;;11.82;;
81273;SDS011;70753;47.908;11.274;2024-01-10T08:52:15;32.35;;;12.82;;
81273;SDS011;70753;47.908;11.274;2024-01-10T08:54:41;35.67;;;13.27;;
81273;SDS011;70753;47.908;11.274;2024-01-10T08:57:07;35.08;;;12.02;;
81273;SDS011;70753;47.908;11.274;2024-01-10T08:59:33;33.80;;;11.70;;
81273;SDS011;70753;47.908;11.274;2024-01-10T09:02:00;31.55;;;11.77;;
81273;SDS011;70753;47.908;11.274;2024-01-10T09:04:25;31.48;;;12.85;;
81273;SDS011;70753;47.908;11.274;2024-01-10T09:06:50;32.72;;;12.15;;
81273;SDS011;70753;47.908;11.274;2024-01-10T09:09:16;35.95;;;12.85;;
81273;SDS011;70753;47.908;11.274;2024-01-10T09:11:42;35.13;;;14.25;;
81273;SDS011;70753;47.908;11.274;2024-01-10T09:14:08;35.67;;;13.68;;
81273;SDS011;70753;47.908;11.274;2024-01-10T09:16:34;37.90;;;13.15;;
81273;SDS011;70753;47.908;11.274;2024-01-10T09:19:00;34.65;;;13.13;;
81273;SDS011;70753;47.908;11.274;2024-01-10T09:21:25;32.22;;;12.32;;
81273;SDS011;70753;47.908;11.274;2024-01-10T09:23:50;30.50;;;12.52;;
81273;SDS011;70753;47.908;11.274;2024-01-10T09:26:16;35.90;;;12.50;;
81273;SDS011;70753;47.908;11.274;2024-01-10T09:28:41;39.88;;;15.45;;
81273;SDS011;70753;47.908;11.274;2024-01-10T09:31:08;35.58;;;13.18;;
81273;SDS011;70753;47.908;11.274;2024-01-10T09:33:33;35.72;;;12.73;;
81273;SDS011;70753;47.908;11.274;2024-01-10T09:35:59;33.05;;;13.20;;
81273;SDS011;70753;47.908;11.274;2024-01-10T09:38:24;29.05;;;12.18;;
81273;SDS011;70753;47.908;11.274;2024-01-10T09:40:50;35.47;;;11.90;;
81273;SDS011;70753;47.908;11.274;2024-01-10T09:43:16;28.95;;;12.15;;
81273;SDS011;70753;47.908;11.274;2024-01-10T09:45:43;33.58;;;13.13;;
81273;SDS011;70753;47.908;11.274;2024-01-10T09:48:13;31.73;;;13.50;;
81273;SDS011;70753;47.908;11.274;2024-01-10T09:50:39;29.23;;;11.98;;
81273;SDS011;70753;47.908;11.274;2024-01-10T09:53:04;30.02;;;11.93;;
81273;SDS011;70753;47.908;11.274;2024-01-10T09:55:31;31.80;;;12.68;;
81273;SDS011;70753;47.908;11.274;2024-01-10T09:58:00;38.40;;;14.00;;
81273;SDS011;70753;47.908;11.274;2024-01-10T10:00:26;33.95;;;13.40;;
81273;SDS011;70753;47.908;11.274;2024-01-10T10:02:53;31.98;;;14.00;;
81273;SDS011;70753;47.908;11.274;2024-01-10T10:05:22;33.35;;;12.70;;
81273;SDS011;70753;47.908;11.274;2024-01-10T10:07:48;32.88;;;13.65;;
81273;SDS011;70753;47.908;11.274;2024-01-10T10:10:15;28.17;;;13.02;;
81273;SDS011;70753;47.908;11.274;2024-01-10T10:12:41;29.63;;;12.80;;
81273;SDS011;70753;47.908;11.274;2024-01-10T10:15:09;31.98;;;13.95;;
81273;SDS011;70753;47.908;11.274;2024-01-10T10:17:36;32.03;;;14.65;;
81273;SDS011;70753;47.908;11.274;2024-01-10T10:20:02;32.42;;;13.55;;
81273;SDS011;70753;47.908;11.274;2024-01-10T10:22:30;29.80;;;13.27;;
81273;SDS011;70753;47.908;11.274;2024-01-10T10:24:55;29.83;;;13.05;;
81273;SDS011;70753;47.908;11.274;2024-01-10T10:27:21;32.05;;;13.23;;
81273;SDS011;70753;47.908;11.274;2024-01-10T10:29:48;34.58;;;13.88;;
81273;SDS011;70753;47.908;11.274;2024-01-10T10:32:14;33.08;;;13.32;;
81273;SDS011;70753;47.908;11.274;2024-01-10T10:34:40;31.75;;;14.40;;
81273;SDS011;70753;47.908;11.274;2024-01-10T10:37:06;33.05;;;14.50;;
81273;SDS011;70753;47.908;11.274;2024-01-10T10:39:33;28.90;;;13.05;;
81273;SDS011;70753;47.908;11.274;2024-01-10T10:41:59;31.13;;;12.80;;
81273;SDS011;70753;47.908;11.274;2024-01-10T10:44:26;28.98;;;12.68;;
81273;SDS011;70753;47.908;11.274;2024-01-10T10:46:54;30.88;;;13.90;;
81273;SDS011;70753;47.908;11.274;2024-01-10T10:49:26;29.70;;;13.30;;
81273;SDS011;70753;47.908;11.274;2024-01-10T10:51:53;32.83;;;13.82;;
81273;SDS011;70753;47.908;11.274;2024-01-10T10:54:22;29.45;;;13.50;;
81273;SDS011;70753;47.908;11.274;2024-01-10T10:56:50;30.92;;;13.43;;
81273;SDS011;70753;47.908;11.274;2024-01-10T10:59:19;33.42;;;14.70;;
81273;SDS011;70753;47.908;11.274;2024-01-10T11:01:45;26.77;;;13.32;;
81273;SDS011;70753;47.908;11.274;2024-01-10T11:04:11;32.63;;;13.98;;
81273;SDS011;70753;47.908;11.274;2024-01-10T11:06:38;30.08;;;13.05;;
81273;SDS011;70753;47.908;11.274;2024-01-10T11:09:05;27.15;;;12.40;;
81273;SDS011;70753;47.908;11.274;2024-01-10T11:11:37;30.75;;;12.93;;
81273;SDS011;70753;47.908;11.274;2024-01-10T11:14:18;27.23;;;12.73;;
81273;SDS011;70753;47.908;11.274;2024-01-10T11:17:00;28.35;;;13.25;;
81273;SDS011;70753;47.908;11.274;2024-01-10T11:19:43;27.50;;;12.07;;
81273;SDS011;70753;47.908;11.274;2024-01-10T11:22:29;24.88;;;12.07;;
81273;SDS011;70753;47.908;11.274;2024-01-10T11:25:08;25.25;;;12.25;;
81273;SDS011;70753;47.908;11.274;2024-01-10T11:27:36;22.65;;;11.35;;
81273;SDS011;70753;47.908;11.274;2024-01-10T11:30:03;27.20;;;12.55;;
81273;SDS011;70753;47.908;11.274;2024-01-10T11:32:30;25.60;;;12.18;;
81273;SDS011;70753;47.908;11.274;2024-01-10T11:34:58;27.45;;;12.73;;
81273;SDS011;70753;47.908;11.274;2024-01-10T11:37:24;25.20;;;11.70;;
81273;SDS011;70753;47.908;11.274;2024-01-10T11:39:53;25.50;;;11.82;;
81273;SDS011;70753;47.908;11.274;2024-01-10T11:42:23;25.80;;;13.00;;
81273;SDS011;70753;47.908;11.274;2024-01-10T11:44:49;28.98;;;12.98;;
81273;SDS011;70753;47.908;11.274;2024-01-10T11:47:17;28.83;;;13.02;;
81273;SDS011;70753;47.908;11.274;2024-01-10T11:49:53;28.52;;;13.23;;
81273;SDS011;70753;47.908;11.274;2024-01-10T11:52:20;29.33;;;13.13;;
81273;SDS011;70753;47.908;11.274;2024-01-10T11:54:46;30.95;;;12.82;;
81273;SDS011;70753;47.908;11.274;2024-01-10T11:57:12;30.73;;;13.18;;
81273;SDS011;70753;47.908;11.274;2024-01-10T11:59:40;29.70;;;13.90;;
81273;SDS011;70753;47.908;11.274;2024-01-10T12:02:07;27.17;;;13.00;;
81273;SDS011;70753;47.908;11.274;2024-01-10T12:04:34;30.30;;;14.07;;
81273;SDS011;70753;47.908;11.274;2024-01-10T12:06:59;28.92;;;12.07;;
81273;SDS011;70753;47.908;11.274;2024-01-10T12:09:26;32.72;;;13.65;;
81273;SDS011;70753;47.908;11.274;2024-01-10T12:11:52;29.02;;;13.45;;
81273;SDS011;70753;47.908;11.274;2024-01-10T12:14:18;32.38;;;13.52;;
81273;SDS011;70753;47.908;11.274;2024-01-10T12:16:43;26.63;;;12.10;;
81273;SDS011;70753;47.908;11.274;2024-01-10T12:19:09;31.58;;;13.68;;
81273;SDS011;70753;47.908;11.274;2024-01-10T12:21:36;30.17;;;13.13;;
81273;SDS011;70753;47.908;11.274;2024-01-10T12:24:02;26.58;;;12.68;;
81273;SDS011;70753;47.908;11.274;2024-01-10T12:26:28;27.80;;;13.35;;
81273;SDS011;70753;47.908;11.274;2024-01-10T12:28:54;29.70;;;12.55;;
81273;SDS011;70753;47.908;11.274;2024-01-10T12:31:21;25.77;;;12.30;;
81273;SDS011;70753;47.908;11.274;2024-01-10T12:33:47;26.27;;;12.70;;
81273;SDS011;70753;47.908;11.274;2024-01-10T12:36:12;27.58;;;12.90;;
81273;SDS011;70753;47.908;11.274;2024-01-10T12:38:39;26.25;;;12.18;;
81273;SDS011;70753;47.908;11.274;2024-01-10T12:41:05;28.42;;;12.65;;
81273;SDS011;70753;47.908;11.274;2024-01-10T12:43:31;23.85;;;11.38;;
81273;SDS011;70753;47.908;11.274;2024-01-10T12:46:03;24.73;;;11.07;;
81273;SDS011;70753;47.908;11.274;2024-01-10T12:48:29;26.75;;;11.88;;
81273;SDS011;70753;47.908;11.274;2024-01-10T12:50:54;26.42;;;12.00;;
81273;SDS011;70753;47.908;11.274;2024-01-10T12:53:20;24.80;;;12.48;;
81273;SDS011;70753;47.908;11.274;2024-01-10T12:55:47;23.33;;;10.70;;
81273;SDS011;70753;47.908;11.274;2024-01-10T12:58:12;25.90;;;12.20;;
81273;SDS011;70753;47.908;11.274;2024-01-10T13:00:38;23.80;;;10.98;;
81273;SDS011;70753;47.908;11.274;2024-01-10T13:03:03;24.65;;;11.48;;
81273;SDS011;70753;47.908;11.274;2024-01-10T13:05:29;24.83;;;11.07;;
81273;SDS011;70753;47.908;11.274;2024-01-10T13:07:55;26.02;;;11.02;;
81273;SDS011;70753;47.908;11.274;2024-01-10T13:10:20;23.15;;;10.77;;
81273;SDS011;70753;47.908;11.274;2024-01-10T13:12:47;27.55;;;12.43;;
81273;SDS011;70753;47.908;11.274;2024-01-10T13:15:12;23.48;;;11.13;;
81273;SDS011;70753;47.908;11.274;2024-01-10T13:17:38;24.17;;;11.40;;
81273;SDS011;70753;47.908;11.274;2024-01-10T13:20:04;26.08;;;11.55;;
81273;SDS011;70753;47.908;11.274;2024-01-10T13:22:30;23.63;;;11.70;;
81273;SDS011;70753;47.908;11.274;2024-01-10T13:24:56;25.42;;;11.88;;
81273;SDS011;70753;47.908;11.274;2024-01-10T13:27:21;26.70;;;11.55;;
81273;SDS011;70753;47.908;11.274;2024-01-10T13:29:48;23.77;;;11.35;;
81273;SDS011;70753;47.908;11.274;2024-01-10T13:32:13;25.20;;;11.40;;
81273;SDS011;70753;47.908;11.274;2024-01-10T13:34:39;26.55;;;11.70;;
81273;SDS011;70753;47.908;11.274;2024-01-10T13:37:05;26.25;;;11.88;;
81273;SDS011;70753;47.908;11.274;2024-01-10T13:39:31;25.70;;;11.80;;
81273;SDS011;70753;47.908;11.274;2024-01-10T13:41:56;25.05;;;11.75;;
81273;SDS011;70753;47.908;11.274;2024-01-10T13:44:21;27.27;;;11.90;;
81273;SDS011;70753;47.908;11.274;2024-01-10T13:46:48;27.17;;;12.48;;
81273;SDS011;70753;47.908;11.274;2024-01-10T13:49:13;26.33;;;11.52;;
81273;SDS011;70753;47.908;11.274;2024-01-10T13:51:39;27.48;;;11.43;;
81273;SDS011;70753;47.908;11.274;2024-01-10T13:54:04;25.77;;;11.90;;
81273;SDS011;70753;47.908;11.274;2024-01-10T13:56:30;27.25;;;12.63;;
81273;SDS011;70753;47.908;11.274;2024-01-10T13:58:55;24.83;;;12.05;;
81273;SDS011;70753;47.908;11.274;2024-01-10T14:01:20;29.75;;;12.15;;